createdAt,value
2018-10-01T00:49:39.203Z,94812.31
2018-10-01T00:54:43.314Z,94812.11
2018-10-01T00:59:46.664Z,94816.48
2018-10-01T02:31:07.190Z,94777.44
2018-10-01T02:36:11.291Z,94769.46
2018-10-01T02:41:14.632Z,94761.52
2018-10-01T03:49:35.857Z,94733.73
2018-10-01T03:54:39.215Z,94737.73
2018-10-01T03:59:42.551Z,94727.47
2018-10-01T04:33:32.431Z,114492.60
2018-10-01T04:38:36.559Z,114492.60
2018-10-01T04:43:40.679Z,114492.60
2018-10-01T04:48:44.037Z,114492.60
2018-10-01T04:53:47.379Z,114492.60
2018-10-01T04:58:50.781Z,114492.60
2018-10-01T05:03:54.139Z,114492.60
2018-10-01T05:08:58.265Z,114492.60
2018-10-01T05:14:01.606Z,114492.60
2018-10-01T05:19:04.947Z,114492.60
2018-10-01T05:24:08.334Z,114492.60
2018-10-01T05:29:12.423Z,114492.60
2018-10-01T05:34:15.780Z,114492.60
2018-10-01T05:39:19.131Z,114492.60
2018-10-01T05:44:22.496Z,114492.60
2018-10-01T05:49:25.838Z,114492.60
2018-10-01T05:54:29.199Z,114492.60
2018-10-01T05:59:32.546Z,114492.60
2018-10-01T06:04:35.939Z,114492.60
2018-10-01T06:09:39.263Z,114492.60
2018-10-01T06:14:42.610Z,114492.60
2018-10-01T06:19:45.951Z,114492.60
2018-10-01T06:24:49.295Z,114492.60
2018-10-01T06:29:52.637Z,114492.60
2018-10-01T07:03:41.826Z,94856.90
2018-10-01T07:08:45.175Z,94868.56
2018-10-01T07:13:48.504Z,94867.24
2018-10-01T08:04:53.088Z,94937.38
2018-10-01T08:09:56.420Z,94947.27
2018-10-01T08:14:59.743Z,94950.86
2018-10-01T09:05:57.419Z,95007.05
2018-10-01T09:11:00.762Z,95019.48
2018-10-01T10:02:05.671Z,95078.22
2018-10-01T10:07:09.003Z,95092.75
2018-10-01T10:12:12.330Z,95087.09
2018-10-01T11:03:17.132Z,95132.58
2018-10-01T11:08:20.453Z,95128.41
2018-10-01T11:13:23.779Z,95126.46
2018-10-01T12:04:29.138Z,95127.12
2018-10-01T12:09:32.502Z,95133.20
2018-10-01T12:14:35.818Z,95128.78
2018-10-01T13:05:40.354Z,95131.11
2018-10-01T13:10:43.692Z,95136.78
2018-10-01T14:01:47.235Z,95192.70
2018-10-01T14:06:50.555Z,95181.02
2018-10-01T14:11:53.898Z,95214.78
2018-10-01T14:45:55.447Z,95228.48
2018-10-01T14:50:58.781Z,95233.77
2018-10-01T14:56:02.901Z,95245.31
2018-10-01T15:35:36.722Z,95298.39
2018-10-01T15:40:40.059Z,95288.39
2018-10-01T15:45:43.408Z,95297.51
2018-10-01T15:50:46.743Z,95305.05
2018-10-01T15:55:50.887Z,95302.53
2018-10-01T16:00:54.201Z,95332.89
2018-10-01T16:05:57.526Z,95325.28
2018-10-01T16:11:00.913Z,95331.06
2018-10-01T16:16:04.227Z,95338.65
2018-10-01T16:21:08.326Z,95335.52
2018-10-01T16:26:11.670Z,95347.27
2018-10-01T16:31:15.767Z,95352.55
2018-10-01T16:36:19.109Z,95348.69
2018-10-01T16:41:23.215Z,95356.59
2018-10-01T16:46:26.543Z,95365.67
2018-10-01T16:51:30.638Z,95374.06
2018-10-01T16:56:33.968Z,95388.67
2018-10-01T17:01:37.417Z,95391.19
2018-10-01T17:06:40.762Z,95398.08
2018-10-01T17:11:44.091Z,95423.44
2018-10-01T17:16:47.418Z,95412.97
2018-10-01T17:21:50.754Z,95416.69
2018-10-01T17:27:00.066Z,95418.36
2018-10-01T17:32:03.643Z,95418.06
2018-10-01T17:37:07.005Z,95427.50
2018-10-01T17:42:10.410Z,95422.73
2018-10-01T17:47:13.730Z,95423.75
2018-10-01T17:52:17.090Z,95434.40
2018-10-01T17:57:21.569Z,95436.31
2018-10-01T18:02:25.266Z,95449.09
2018-10-01T18:07:29.027Z,95451.44
2018-10-01T18:12:32.399Z,95449.67
2018-10-01T18:17:49.844Z,95455.70
2018-10-01T18:22:53.121Z,95461.84
2018-10-01T18:27:57.226Z,95461.47
2018-10-01T18:33:00.579Z,95473.02
2018-10-01T18:38:28.382Z,95471.39
2018-10-01T18:43:31.718Z,95474.22
2018-10-01T18:48:35.055Z,95473.80
2018-10-01T18:53:38.390Z,95482.58
2018-10-01T18:58:42.496Z,95483.16
2018-10-01T19:03:45.820Z,95489.84
2018-10-01T19:08:49.149Z,95492.72
2018-10-01T19:13:53.249Z,95500.41
2018-10-01T19:18:56.583Z,95502.63
2018-10-01T19:23:59.976Z,95502.66
2018-10-01T19:29:04.028Z,95509.69
2018-10-01T19:34:07.369Z,95518.36
2018-10-01T19:39:10.772Z,95518.78
2018-10-01T19:44:14.082Z,95516.88
2018-10-01T19:49:18.184Z,95525.11
2018-10-01T19:54:21.508Z,95524.61
2018-10-01T19:59:24.887Z,95523.18
2018-10-01T20:04:28.940Z,95522.30
2018-10-01T20:09:32.271Z,95533.02
2018-10-01T20:14:35.603Z,95529.57
2018-10-01T20:19:39.695Z,95527.63
2018-10-01T20:24:43.070Z,95536.66
2018-10-01T20:29:47.283Z,95540.83
2018-10-01T20:34:51.300Z,95538.17
2018-10-01T20:39:54.618Z,95540.89
2018-10-01T20:44:58.719Z,95538.36
2018-10-01T20:50:02.172Z,95548.08
2018-10-01T20:55:05.399Z,95545.34
2018-10-01T21:00:08.719Z,95548.05
2018-10-01T21:05:12.046Z,95547.62
2018-10-01T21:10:15.399Z,95554.26
2018-10-01T21:15:19.500Z,95562.78
2018-10-01T21:20:22.834Z,95578.28
2018-10-01T21:25:37.041Z,95575.43
2018-10-01T21:30:40.863Z,95578.23
2018-10-01T21:35:44.200Z,95580.43
2018-10-01T21:40:47.526Z,95588.75
2018-10-01T21:45:50.851Z,95584.67
2018-10-01T21:50:54.174Z,95576.16
2018-10-01T21:55:57.507Z,95579.06
2018-10-01T22:01:01.592Z,95582.28
2018-10-01T22:06:04.918Z,95571.08
2018-10-01T22:11:08.250Z,95574.16
2018-10-01T22:16:12.337Z,95591.44
2018-10-01T22:21:15.650Z,95588.65
2018-10-01T22:26:18.972Z,95583.97
2018-10-01T22:31:22.291Z,95600.52
2018-10-01T22:36:25.625Z,95593.14
2018-10-01T22:41:28.934Z,95614.12
2018-10-01T22:46:32.245Z,95612.45
2018-10-01T22:51:35.569Z,95609.09
2018-10-01T22:56:39.661Z,95596.83
2018-10-01T23:01:42.983Z,95602.36
2018-10-01T23:06:46.293Z,95604.70
2018-10-01T23:11:49.618Z,95603.69
